createdAt,value
2017-08-06T00:01:51.681Z,58.70
2017-08-06T00:04:17.959Z,58.50
2017-08-06T00:06:44.259Z,59.00
2017-08-06T00:09:10.492Z,57.90
2017-08-06T00:11:36.776Z,57.60
2017-08-06T00:14:03.457Z,57.70
2017-08-06T00:16:29.743Z,57.70
2017-08-06T00:18:56.038Z,59.30
2017-08-06T00:21:22.340Z,59.10
2017-08-06T00:23:48.631Z,59.20
2017-08-06T00:26:14.888Z,59.20
2017-08-06T00:28:41.179Z,59.70
2017-08-06T00:31:07.800Z,59.50
2017-08-06T00:33:34.073Z,59.50
2017-08-06T00:36:00.347Z,59.50
2017-08-06T00:38:26.642Z,59.70
2017-08-06T00:40:52.929Z,59.90
2017-08-06T00:43:19.601Z,59.00
2017-08-06T00:45:45.912Z,59.00
2017-08-06T00:48:12.167Z,60.80
2017-08-06T00:50:38.453Z,60.90
2017-08-06T00:53:04.748Z,60.50
2017-08-06T00:55:31.022Z,59.40
2017-08-06T00:57:57.269Z,60.50
2017-08-06T01:00:23.847Z,60.60
2017-08-06T01:02:50.100Z,60.20
2017-08-06T01:05:16.407Z,60.90
2017-08-06T01:07:42.681Z,59.80
2017-08-06T01:10:08.958Z,60.90
2017-08-06T01:12:35.224Z,59.90
2017-08-06T01:15:01.490Z,58.90
2017-08-06T01:17:27.776Z,60.40
2017-08-06T01:19:54.034Z,59.10
2017-08-06T01:22:20.717Z,59.50
2017-08-06T01:24:46.971Z,60.40
2017-08-06T01:27:13.258Z,60.90
2017-08-06T01:29:39.586Z,59.30
2017-08-06T01:32:05.890Z,59.50
2017-08-06T01:34:32.203Z,58.50
2017-08-06T01:36:58.881Z,58.80
2017-08-06T01:39:25.204Z,58.80
2017-08-06T01:41:51.487Z,60.70
2017-08-06T01:44:17.803Z,59.10
2017-08-06T01:46:44.113Z,59.80
2017-08-06T01:49:10.690Z,60.40
2017-08-06T01:51:36.990Z,58.90
2017-08-06T01:54:03.281Z,59.70
2017-08-06T01:56:29.578Z,60.90
2017-08-06T01:58:55.874Z,60.90
2017-08-06T02:01:22.233Z,59.70
2017-08-06T02:03:48.509Z,60.20
2017-08-06T02:06:14.771Z,60.30
2017-08-06T02:08:41.042Z,61.60
2017-08-06T02:11:07.702Z,61.10
2017-08-06T02:13:33.948Z,61.10
2017-08-06T02:16:00.289Z,61.70
2017-08-06T02:18:26.589Z,59.70
2017-08-06T02:20:52.888Z,60.10
2017-08-06T02:23:19.165Z,60.40
2017-08-06T02:25:45.445Z,60.20
2017-08-06T02:28:12.107Z,61.20
2017-08-06T02:30:38.365Z,61.20
2017-08-06T02:33:04.642Z,61.60
2017-08-06T02:35:30.959Z,62.00
2017-08-06T02:37:57.689Z,62.30
2017-08-06T02:40:23.958Z,62.20
2017-08-06T02:42:50.269Z,62.20
2017-08-06T02:45:16.950Z,63.70
2017-08-06T02:47:43.233Z,63.70
2017-08-06T02:50:09.525Z,63.50
2017-08-06T02:52:35.781Z,63.00
2017-08-06T02:55:02.393Z,64.20
2017-08-06T02:57:28.660Z,68.80
2017-08-06T02:59:54.918Z,68.80
2017-08-06T03:02:21.190Z,69.20
2017-08-06T03:04:47.474Z,71.00
2017-08-06T03:07:13.752Z,70.50
2017-08-06T03:09:40.022Z,71.80
2017-08-06T03:12:06.694Z,74.00
2017-08-06T03:14:33.009Z,74.10
2017-08-06T03:16:59.318Z,71.90
2017-08-06T03:19:25.956Z,74.10
2017-08-06T03:21:52.601Z,75.20
2017-08-06T03:24:19.248Z,77.60
2017-08-06T03:26:45.552Z,77.60
2017-08-06T03:29:11.821Z,78.90
2017-08-06T03:31:38.099Z,77.90
2017-08-06T03:34:04.374Z,78.40
2017-08-06T03:36:30.673Z,78.30
2017-08-06T03:38:56.975Z,76.40
2017-08-06T03:41:23.247Z,77.20
2017-08-06T03:43:49.519Z,76.70
2017-08-06T03:46:15.847Z,78.50
2017-08-06T03:48:42.086Z,78.70
2017-08-06T03:51:08.375Z,79.70
2017-08-06T03:53:34.617Z,79.50
2017-08-06T03:56:00.873Z,76.80
2017-08-06T03:58:27.127Z,78.00
2017-08-06T04:00:53.419Z,78.30
2017-08-06T04:03:19.677Z,79.50
2017-08-06T04:05:45.970Z,79.10
2017-08-06T04:08:12.241Z,78.60
2017-08-06T04:10:38.854Z,79.30
2017-08-06T04:13:05.132Z,78.00
2017-08-06T04:15:31.401Z,78.10
2017-08-06T04:17:57.701Z,77.80
2017-08-06T04:20:23.962Z,78.70
2017-08-06T04:22:50.256Z,79.80
2017-08-06T04:25:16.531Z,78.40
2017-08-06T04:27:42.784Z,78.40
2017-08-06T04:30:09.061Z,77.30
2017-08-06T04:32:35.324Z,78.90
2017-08-06T04:35:01.585Z,77.90
2017-08-06T04:37:28.181Z,78.30
2017-08-06T04:39:54.432Z,78.30
2017-08-06T04:42:20.715Z,78.00
2017-08-06T04:44:47.000Z,78.20
2017-08-06T04:47:13.643Z,77.40
2017-08-06T04:49:40.297Z,78.30
2017-08-06T04:52:06.561Z,78.30
2017-08-06T04:54:32.851Z,77.60
2017-08-06T04:56:59.129Z,78.00
2017-08-06T04:59:25.617Z,78.50
2017-08-06T05:01:51.875Z,77.20
2017-08-06T05:04:18.146Z,78.70
2017-08-06T05:06:44.434Z,78.50
2017-08-06T05:09:10.708Z,78.30
2017-08-06T05:11:37.006Z,79.00
2017-08-06T05:14:03.247Z,79.00
2017-08-06T05:16:29.542Z,78.70
2017-08-06T05:18:55.794Z,78.50
2017-08-06T05:21:22.548Z,78.60
2017-08-06T05:23:48.862Z,78.70
2017-08-06T05:26:15.115Z,77.30
2017-08-06T05:28:41.370Z,76.50
2017-08-06T05:31:08.006Z,77.60
2017-08-06T05:33:34.684Z,78.20
2017-08-06T05:36:00.961Z,78.20
2017-08-06T05:38:27.243Z,78.00
2017-08-06T05:40:53.531Z,77.00
2017-08-06T05:43:20.174Z,77.50
2017-08-06T05:45:46.806Z,77.10
2017-08-06T05:48:13.914Z,76.10
2017-08-06T05:50:40.172Z,76.10
2017-08-06T05:53:06.425Z,75.40
2017-08-06T05:55:32.770Z,74.70
2017-08-06T05:57:59.031Z,73.80
2017-08-06T06:00:25.362Z,73.80
2017-08-06T06:02:51.639Z,74.50
2017-08-06T06:05:17.938Z,74.50
2017-08-06T06:07:44.213Z,74.70
2017-08-06T06:10:10.780Z,74.50
2017-08-06T06:12:37.074Z,74.00
2017-08-06T06:15:03.402Z,73.30
2017-08-06T06:17:29.691Z,74.60
2017-08-06T06:19:55.945Z,74.50
2017-08-06T06:22:22.252Z,73.30
2017-08-06T06:24:48.525Z,76.00
2017-08-06T06:27:14.806Z,76.20
2017-08-06T06:29:41.117Z,75.90
2017-08-06T06:32:07.648Z,75.40
2017-08-06T06:34:33.929Z,76.00
2017-08-06T06:37:00.197Z,77.00
2017-08-06T06:39:26.513Z,76.00
2017-08-06T06:41:52.833Z,75.20
2017-08-06T06:44:19.094Z,74.90
2017-08-06T06:46:45.363Z,75.00
2017-08-06T06:49:12.011Z,74.10
2017-08-06T06:51:38.642Z,73.70
2017-08-06T06:54:05.322Z,75.40
2017-08-06T06:56:31.593Z,75.40
2017-08-06T06:58:58.215Z,74.10
2017-08-06T07:01:24.476Z,75.50
2017-08-06T07:03:50.808Z,72.80
2017-08-06T07:06:17.483Z,72.60
2017-08-06T07:08:43.759Z,72.60
2017-08-06T07:11:10.082Z,70.60
2017-08-06T07:13:36.361Z,72.00
2017-08-06T07:16:02.665Z,70.10
2017-08-06T07:18:28.923Z,71.40
2017-08-06T07:20:55.241Z,70.50
2017-08-06T07:23:21.550Z,68.00
2017-08-06T07:25:47.906Z,68.80
2017-08-06T07:28:14.171Z,69.30
2017-08-06T07:30:40.431Z,68.00
2017-08-06T07:33:06.726Z,69.00
2017-08-06T07:35:32.998Z,69.10
2017-08-06T07:37:59.289Z,69.20
2017-08-06T07:40:25.568Z,68.40
2017-08-06T07:42:51.867Z,68.00
2017-08-06T07:45:18.164Z,69.00
2017-08-06T07:47:44.472Z,69.40
2017-08-06T07:50:10.766Z,67.60
2017-08-06T07:52:37.056Z,68.30
2017-08-06T07:55:03.349Z,68.10
2017-08-06T07:57:29.864Z,68.20
2017-08-06T07:59:56.155Z,66.10
2017-08-06T08:02:22.426Z,66.10
2017-08-06T08:04:48.710Z,64.70
2017-08-06T08:07:15.010Z,64.60
2017-08-06T08:09:41.301Z,64.20
2017-08-06T08:12:07.582Z,64.20
2017-08-06T08:14:34.165Z,63.70
2017-08-06T08:17:00.433Z,64.10
2017-08-06T08:19:26.732Z,64.80
2017-08-06T08:21:53.077Z,63.10
2017-08-06T08:24:19.352Z,64.70
2017-08-06T08:26:45.652Z,61.60
2017-08-06T08:29:11.928Z,60.40
2017-08-06T08:31:38.212Z,60.10
2017-08-06T08:34:04.466Z,57.50
2017-08-06T08:36:31.009Z,57.40
2017-08-06T08:38:57.280Z,54.90
2017-08-06T08:41:23.553Z,63.60
2017-08-06T08:43:49.817Z,62.50
2017-08-06T08:46:16.092Z,63.00
2017-08-06T08:48:42.365Z,65.10
2017-08-06T08:51:08.637Z,65.00
2017-08-06T08:53:34.942Z,64.20
2017-08-06T08:56:01.231Z,61.10
2017-08-06T08:58:27.886Z,58.00
2017-08-06T09:00:54.186Z,59.80
2017-08-06T09:03:20.464Z,59.30
2017-08-06T09:05:46.758Z,59.00
2017-08-06T09:08:14.162Z,58.90
2017-08-06T09:10:40.831Z,58.20
2017-08-06T09:13:07.117Z,58.20
2017-08-06T09:15:33.418Z,60.20
2017-08-06T09:17:59.680Z,56.40
2017-08-06T09:20:25.994Z,55.50
2017-08-06T09:22:52.322Z,59.40
2017-08-06T09:25:19.073Z,52.90
2017-08-06T09:27:45.366Z,55.90
2017-08-06T09:30:11.636Z,56.20
2017-08-06T09:32:37.914Z,53.70
2017-08-06T09:35:04.217Z,52.70
2017-08-06T09:37:30.502Z,56.00
2017-08-06T09:39:56.824Z,55.90
2017-08-06T09:42:23.188Z,56.30
2017-08-06T09:44:49.478Z,57.70
2017-08-06T09:47:15.769Z,58.80
2017-08-06T09:49:42.094Z,59.10
2017-08-06T09:52:08.806Z,57.30
2017-08-06T09:54:35.077Z,56.10
2017-08-06T09:57:01.337Z,56.00
2017-08-06T09:59:27.639Z,51.60
2017-08-06T10:01:54.256Z,50.40
2017-08-06T10:04:20.545Z,50.40
2017-08-06T10:06:46.832Z,52.60
2017-08-06T10:09:13.135Z,49.20
2017-08-06T10:11:40.496Z,47.30
2017-08-06T10:14:06.781Z,50.70
2017-08-06T10:16:33.065Z,44.90
2017-08-06T10:18:59.703Z,49.50
2017-08-06T10:21:26.370Z,46.10
2017-08-06T10:23:52.686Z,46.00
2017-08-06T10:26:19.031Z,45.60
2017-08-06T10:28:45.298Z,42.80
2017-08-06T10:31:11.689Z,46.90
2017-08-06T10:33:38.226Z,43.60
2017-08-06T10:36:04.489Z,44.30
2017-08-06T10:38:30.757Z,40.90
2017-08-06T10:40:57.055Z,45.70
2017-08-06T10:43:23.967Z,45.60
2017-08-06T10:45:50.254Z,47.60
2017-08-06T10:48:16.572Z,46.10
2017-08-06T10:50:42.851Z,42.20
2017-08-06T10:53:09.167Z,43.30
2017-08-06T10:55:35.481Z,43.90
2017-08-06T10:58:02.036Z,42.30
2017-08-06T11:00:28.329Z,43.30
2017-08-06T11:02:54.607Z,43.30
2017-08-06T11:05:20.894Z,45.70
2017-08-06T11:07:47.233Z,40.60
2017-08-06T11:10:13.526Z,45.30
2017-08-06T11:12:40.792Z,43.90
2017-08-06T11:15:07.101Z,41.60
2017-08-06T11:17:33.359Z,41.80
2017-08-06T11:19:59.635Z,44.70
2017-08-06T11:22:25.932Z,40.10
2017-08-06T11:24:52.214Z,42.20
2017-08-06T11:27:18.532Z,43.00
2017-08-06T11:29:44.829Z,41.60
2017-08-06T11:32:11.123Z,42.40
2017-08-06T11:34:37.721Z,39.40
2017-08-06T11:37:04.028Z,42.50
2017-08-06T11:39:31.222Z,44.20
2017-08-06T11:41:58.042Z,42.30
2017-08-06T11:44:24.875Z,41.10
2017-08-06T11:46:51.193Z,42.70
2017-08-06T11:49:17.462Z,45.30
2017-08-06T11:51:43.755Z,43.70
2017-08-06T11:54:10.713Z,47.00
2017-08-06T11:56:37.002Z,45.40
2017-08-06T11:59:04.548Z,45.10
2017-08-06T12:01:31.892Z,47.20
2017-08-06T12:03:58.196Z,47.60
2017-08-06T12:06:25.384Z,44.00
2017-08-06T12:08:52.948Z,47.90
2017-08-06T12:11:19.223Z,48.90
2017-08-06T12:13:45.505Z,49.80
2017-08-06T12:16:11.793Z,46.80
2017-08-06T12:18:38.100Z,48.30
2017-08-06T12:21:04.401Z,46.50
2017-08-06T12:23:31.324Z,42.60
2017-08-06T12:25:58.236Z,42.70
2017-08-06T12:28:24.529Z,41.80
2017-08-06T12:30:51.820Z,42.20
2017-08-06T12:33:18.119Z,38.30
2017-08-06T12:35:44.735Z,36.60
2017-08-06T12:38:11.947Z,31.30
2017-08-06T12:40:38.237Z,32.20
2017-08-06T12:43:04.538Z,30.90
2017-08-06T12:45:30.849Z,30.50
2017-08-06T12:47:57.125Z,28.90
2017-08-06T12:50:24.361Z,27.60
2017-08-06T12:52:50.664Z,27.90
2017-08-06T12:55:16.942Z,29.90
2017-08-06T12:57:43.581Z,32.60
2017-08-06T13:00:10.234Z,31.50
2017-08-06T13:02:37.362Z,31.50
2017-08-06T13:05:03.641Z,32.80
2017-08-06T13:07:30.745Z,34.80
2017-08-06T13:09:57.424Z,38.90
2017-08-06T13:12:23.704Z,38.90
2017-08-06T13:14:49.990Z,40.80
2017-08-06T13:17:16.331Z,43.60
2017-08-06T13:19:42.689Z,42.90
2017-08-06T13:22:08.977Z,44.60
2017-08-06T13:24:36.047Z,45.00
2017-08-06T13:27:02.302Z,45.10
2017-08-06T13:29:30.822Z,45.80
2017-08-06T13:31:57.837Z,45.10
2017-08-06T13:34:24.100Z,46.40
2017-08-06T13:36:50.401Z,47.30
2017-08-06T13:39:19.265Z,48.20
2017-08-06T13:41:45.610Z,48.20
2017-08-06T13:44:11.894Z,47.00
2017-08-06T13:46:38.222Z,45.80
2017-08-06T13:49:05.678Z,47.00
2017-08-06T13:51:32.336Z,46.20
2017-08-06T13:53:59.251Z,45.10
2017-08-06T13:56:25.520Z,46.30
2017-08-06T13:58:51.843Z,45.30
2017-08-06T14:01:18.135Z,44.60
2017-08-06T14:03:44.430Z,44.40
2017-08-06T14:06:11.828Z,46.30
2017-08-06T14:08:38.126Z,46.30
2017-08-06T14:11:04.824Z,38.30
2017-08-06T14:13:31.140Z,38.30
2017-08-06T14:15:57.406Z,35.70
2017-08-06T14:18:24.636Z,33.80
2017-08-06T14:20:50.951Z,33.10
2017-08-06T14:23:17.602Z,34.60
2017-08-06T14:25:44.473Z,35.30
2017-08-06T14:28:12.915Z,37.20
2017-08-06T14:30:39.200Z,37.30
2017-08-06T14:33:05.443Z,34.80
2017-08-06T14:35:32.596Z,38.50
2017-08-06T14:37:58.989Z,37.10
2017-08-06T14:40:25.647Z,37.90
2017-08-06T14:42:51.930Z,37.80
2017-08-06T14:45:18.224Z,40.00
2017-08-06T14:47:44.526Z,40.20
2017-08-06T14:50:11.694Z,44.00
2017-08-06T14:52:37.961Z,44.00
2017-08-06T14:55:04.226Z,44.30
2017-08-06T14:57:32.800Z,46.70
2017-08-06T14:59:59.080Z,46.70
2017-08-06T15:02:25.385Z,47.50
2017-08-06T15:04:51.642Z,42.80
2017-08-06T15:07:18.740Z,48.10
2017-08-06T15:09:45.012Z,44.00
2017-08-06T15:12:11.396Z,49.80
2017-08-06T15:14:37.649Z,45.00
2017-08-06T15:17:03.913Z,43.80
2017-08-06T15:19:30.814Z,44.10
2017-08-06T15:21:57.443Z,46.60
2017-08-06T15:24:24.736Z,47.60
2017-08-06T15:26:51.050Z,47.60
2017-08-06T15:29:17.360Z,47.40
2017-08-06T15:31:43.691Z,47.80
2017-08-06T15:34:10.000Z,47.00
2017-08-06T15:36:37.349Z,46.50
2017-08-06T15:39:03.740Z,46.80
2017-08-06T15:41:30.051Z,45.10
2017-08-06T15:43:57.846Z,44.60
2017-08-06T15:46:24.133Z,49.70
2017-08-06T15:48:50.418Z,48.60
2017-08-06T15:51:16.717Z,48.50
2017-08-06T15:53:42.998Z,49.40
2017-08-06T15:56:09.368Z,47.00
2017-08-06T15:58:35.633Z,49.60
2017-08-06T16:01:01.951Z,47.80
2017-08-06T16:03:30.014Z,51.40
2017-08-06T16:05:56.281Z,50.60
2017-08-06T16:08:23.549Z,51.00
2017-08-06T16:10:49.811Z,50.90
2017-08-06T16:13:16.144Z,52.30
2017-08-06T16:15:42.407Z,52.80
2017-08-06T16:18:08.726Z,53.00
2017-08-06T16:20:34.998Z,52.80
2017-08-06T16:23:05.721Z,52.20
2017-08-06T16:25:32.001Z,52.30
2017-08-06T16:27:58.306Z,52.20
2017-08-06T16:30:24.979Z,49.40
2017-08-06T16:32:51.264Z,49.30
2017-08-06T16:35:19.702Z,49.40
2017-08-06T16:37:46.768Z,49.80
2017-08-06T16:40:13.082Z,45.70
2017-08-06T16:42:39.962Z,49.10
2017-08-06T16:45:07.290Z,48.70
2017-08-06T16:47:33.569Z,49.70
2017-08-06T16:50:00.443Z,50.50
2017-08-06T16:52:29.486Z,51.00
2017-08-06T16:54:59.558Z,47.50
2017-08-06T16:57:27.596Z,47.00
2017-08-06T16:59:53.868Z,48.30
2017-08-06T17:02:20.160Z,48.70
2017-08-06T17:04:46.471Z,49.20
2017-08-06T17:07:13.145Z,51.60
2017-08-06T17:09:39.386Z,51.60
2017-08-06T17:12:05.945Z,50.90
2017-08-06T17:14:32.201Z,51.80
2017-08-06T17:16:58.895Z,53.90
2017-08-06T17:19:25.332Z,53.90
2017-08-06T17:21:51.658Z,55.30
2017-08-06T17:24:17.994Z,54.50
2017-08-06T17:26:44.320Z,55.30
2017-08-06T17:29:10.650Z,55.30
2017-08-06T17:31:36.918Z,56.40
2017-08-06T17:34:03.206Z,57.20
2017-08-06T17:36:29.481Z,57.20
2017-08-06T17:38:56.152Z,59.20
2017-08-06T17:41:22.429Z,59.20
2017-08-06T17:43:48.981Z,59.60
2017-08-06T17:46:15.662Z,58.60
2017-08-06T17:48:41.964Z,58.60
2017-08-06T17:51:08.254Z,58.00
2017-08-06T17:53:34.547Z,58.20
2017-08-06T17:56:00.830Z,58.60
2017-08-06T17:58:28.066Z,58.50
2017-08-06T18:00:54.661Z,58.70
2017-08-06T18:03:20.981Z,59.50
2017-08-06T18:05:47.410Z,60.40
2017-08-06T18:08:13.699Z,60.90
2017-08-06T18:10:41.045Z,61.30
2017-08-06T18:13:07.413Z,60.30
2017-08-06T18:15:34.084Z,62.10
2017-08-06T18:18:00.400Z,62.10
2017-08-06T18:20:26.694Z,62.10
2017-08-06T18:22:53.008Z,62.40
2017-08-06T18:25:20.224Z,61.70
2017-08-06T18:27:46.558Z,63.10
2017-08-06T18:30:12.847Z,62.70
2017-08-06T18:32:39.192Z,63.50
2017-08-06T18:35:06.274Z,63.80
2017-08-06T18:37:34.385Z,64.20
2017-08-06T18:40:01.579Z,64.60
2017-08-06T18:42:29.396Z,64.30
2017-08-06T18:44:56.187Z,64.30
2017-08-06T18:47:22.586Z,65.20
2017-08-06T18:49:49.250Z,66.10
2017-08-06T18:52:15.546Z,66.00
2017-08-06T18:54:41.858Z,66.60
2017-08-06T18:57:08.160Z,66.70
2017-08-06T18:59:34.482Z,67.60
2017-08-06T19:02:00.788Z,67.30
2017-08-06T19:04:27.222Z,67.90
2017-08-06T19:06:53.518Z,68.70
2017-08-06T19:09:20.174Z,68.80
2017-08-06T19:11:46.893Z,69.00
2017-08-06T19:14:13.160Z,68.40
2017-08-06T19:16:40.369Z,68.90
2017-08-06T19:19:06.685Z,69.60
2017-08-06T19:21:32.992Z,69.30
2017-08-06T19:23:59.306Z,69.10
2017-08-06T19:26:25.597Z,69.40
2017-08-06T19:28:51.895Z,70.10
2017-08-06T19:31:18.467Z,70.10
2017-08-06T19:33:45.797Z,70.60
2017-08-06T19:36:12.101Z,71.10
2017-08-06T19:38:38.407Z,71.50
2017-08-06T19:41:05.730Z,71.60
2017-08-06T19:43:32.030Z,71.20
2017-08-06T19:45:58.609Z,71.60
2017-08-06T19:48:25.278Z,72.00
2017-08-06T19:50:51.571Z,72.00
2017-08-06T19:53:17.884Z,72.20
2017-08-06T19:55:44.534Z,72.80
2017-08-06T19:58:11.604Z,73.80
2017-08-06T20:00:38.257Z,74.00
2017-08-06T20:03:05.482Z,73.90
2017-08-06T20:05:32.137Z,74.20
2017-08-06T20:08:00.249Z,74.20
2017-08-06T20:10:26.573Z,73.90
2017-08-06T20:12:52.874Z,74.40
2017-08-06T20:15:19.231Z,74.40
2017-08-06T20:17:45.574Z,74.50
2017-08-06T20:20:12.208Z,74.60
2017-08-06T20:22:38.506Z,74.90
2017-08-06T20:25:05.686Z,75.40
2017-08-06T20:27:31.985Z,75.80
2017-08-06T20:29:58.305Z,75.60
2017-08-06T20:32:24.983Z,75.40
2017-08-06T20:34:51.311Z,75.50
2017-08-06T20:37:17.618Z,75.90
2017-08-06T20:39:43.950Z,76.00
2017-08-06T20:42:10.820Z,76.20
2017-08-06T20:44:38.662Z,76.70
2017-08-06T20:47:08.099Z,76.50
2017-08-06T20:49:34.479Z,76.30
2017-08-06T20:52:01.446Z,76.50
2017-08-06T20:54:27.776Z,76.50
2017-08-06T20:56:56.202Z,76.50
2017-08-06T20:59:22.521Z,76.80
2017-08-06T21:01:48.794Z,77.00
2017-08-06T21:04:15.668Z,77.80
2017-08-06T21:06:41.943Z,78.20
2017-08-06T21:09:08.648Z,77.30
2017-08-06T21:11:41.012Z,77.30
2017-08-06T21:14:07.584Z,77.30
2017-08-06T21:16:33.875Z,77.50
2017-08-06T21:19:00.159Z,77.30
2017-08-06T21:21:26.472Z,77.60
2017-08-06T21:23:52.757Z,77.20
2017-08-06T21:26:19.064Z,77.00
2017-08-06T21:28:45.337Z,76.90
2017-08-06T21:31:11.618Z,76.90
2017-08-06T21:33:39.983Z,77.20
2017-08-06T21:36:06.272Z,77.60
2017-08-06T21:38:32.544Z,78.30
2017-08-06T21:40:59.668Z,78.20
2017-08-06T21:43:25.923Z,78.20
2017-08-06T21:45:52.168Z,78.50
2017-08-06T21:48:18.474Z,78.00
2017-08-06T21:50:45.132Z,78.00
2017-08-06T21:53:11.434Z,78.00
2017-08-06T21:55:37.775Z,77.80
2017-08-06T21:58:04.457Z,77.40
2017-08-06T22:00:30.718Z,77.40
2017-08-06T22:02:57.308Z,77.20
2017-08-06T22:05:23.590Z,77.80
2017-08-06T22:07:49.892Z,78.30
2017-08-06T22:10:16.178Z,78.70
2017-08-06T22:12:42.822Z,78.10
2017-08-06T22:15:09.124Z,78.10
2017-08-06T22:17:35.409Z,78.10
2017-08-06T22:20:02.150Z,78.00
2017-08-06T22:22:28.423Z,77.80
2017-08-06T22:24:54.730Z,77.60
2017-08-06T22:27:21.029Z,77.80
2017-08-06T22:29:47.301Z,77.90
2017-08-06T22:32:13.601Z,77.90
2017-08-06T22:34:39.878Z,78.20
2017-08-06T22:37:06.546Z,77.80
2017-08-06T22:39:32.814Z,77.90
2017-08-06T22:41:59.123Z,78.10
2017-08-06T22:44:25.417Z,78.90
2017-08-06T22:46:53.357Z,78.10
2017-08-06T22:49:19.642Z,78.10
2017-08-06T22:51:45.928Z,77.80
2017-08-06T22:54:12.227Z,77.80
2017-08-06T22:56:38.511Z,77.80
2017-08-06T22:59:04.806Z,77.80
2017-08-06T23:01:31.088Z,78.70
2017-08-06T23:03:57.380Z,78.70
2017-08-06T23:06:23.641Z,78.70
2017-08-06T23:08:49.980Z,79.30
2017-08-06T23:11:16.251Z,79.30
2017-08-06T23:13:42.806Z,79.20
2017-08-06T23:16:09.461Z,79.00
2017-08-06T23:18:35.712Z,79.00
2017-08-06T23:21:02.016Z,78.60
2017-08-06T23:23:28.290Z,78.60
2017-08-06T23:25:54.594Z,79.60
2017-08-06T23:28:20.868Z,79.60
2017-08-06T23:30:47.150Z,78.80
2017-08-06T23:33:13.415Z,78.60
2017-08-06T23:35:39.721Z,78.90
2017-08-06T23:38:06.031Z,79.10
2017-08-06T23:40:32.641Z,79.00
2017-08-06T23:42:58.913Z,78.80
2017-08-06T23:45:25.175Z,78.50
2017-08-06T23:47:51.479Z,79.30
2017-08-06T23:50:17.747Z,79.80
2017-08-06T23:52:44.049Z,79.10
2017-08-06T23:55:11.305Z,78.70
2017-08-06T23:57:37.573Z,78.60
